sensor_id;sensor_type;location;lat;lon;timestamp;P1;durP1;ratioP1;P2;durP2;ratioP2
42196;SDS011;27866;48.146;17.098;2024-02-23T00:01:22;2.63;;;1.67;;
42196;SDS011;27866;48.146;17.098;2024-02-23T00:05:34;3.20;;;1.67;;
42196;SDS011;27866;48.146;17.098;2024-02-23T00:09:45;2.92;;;1.80;;
42196;SDS011;27866;48.146;17.098;2024-02-23T00:13:57;2.45;;;1.63;;
42196;SDS011;27866;48.146;17.098;2024-02-23T00:18:09;4.05;;;1.75;;
42196;SDS011;27866;48.146;17.098;2024-02-23T00:22:22;3.78;;;1.90;;
42196;SDS011;27866;48.146;17.098;2024-02-23T00:26:35;2.60;;;1.67;;
42196;SDS011;27866;48.146;17.098;2024-02-23T00:30:46;2.45;;;1.80;;
42196;SDS011;27866;48.146;17.098;2024-02-23T00:34:58;2.88;;;1.63;;
42196;SDS011;27866;48.146;17.098;2024-02-23T00:39:09;3.15;;;1.70;;
42196;SDS011;27866;48.146;17.098;2024-02-23T00:43:21;2.72;;;1.80;;
42196;SDS011;27866;48.146;17.098;2024-02-23T00:47:33;1.63;;;1.30;;
42196;SDS011;27866;48.146;17.098;2024-02-23T00:51:45;2.10;;;1.50;;
42196;SDS011;27866;48.146;17.098;2024-02-23T00:55:57;1.65;;;1.33;;
42196;SDS011;27866;48.146;17.098;2024-02-23T01:00:09;1.88;;;1.52;;
42196;SDS011;27866;48.146;17.098;2024-02-23T01:04:21;2.50;;;1.55;;
42196;SDS011;27866;48.146;17.098;2024-02-23T01:08:32;2.30;;;1.40;;
42196;SDS011;27866;48.146;17.098;2024-02-23T01:12:44;1.98;;;1.42;;
42196;SDS011;27866;48.146;17.098;2024-02-23T01:16:56;2.00;;;1.50;;
42196;SDS011;27866;48.146;17.098;2024-02-23T01:21:08;2.00;;;1.42;;
42196;SDS011;27866;48.146;17.098;2024-02-23T01:25:19;4.20;;;1.50;;
42196;SDS011;27866;48.146;17.098;2024-02-23T01:29:31;2.13;;;1.50;;
42196;SDS011;27866;48.146;17.098;2024-02-23T01:33:43;2.20;;;1.55;;
42196;SDS011;27866;48.146;17.098;2024-02-23T01:37:54;3.78;;;1.50;;
42196;SDS011;27866;48.146;17.098;2024-02-23T01:42:08;3.00;;;1.30;;
42196;SDS011;27866;48.146;17.098;2024-02-23T01:46:19;1.83;;;1.40;;
42196;SDS011;27866;48.146;17.098;2024-02-23T01:50:31;2.80;;;1.58;;
42196;SDS011;27866;48.146;17.098;2024-02-23T01:54:43;2.40;;;1.35;;
42196;SDS011;27866;48.146;17.098;2024-02-23T01:58:55;2.28;;;1.58;;
42196;SDS011;27866;48.146;17.098;2024-02-23T02:03:07;1.65;;;1.35;;
42196;SDS011;27866;48.146;17.098;2024-02-23T02:07:19;2.13;;;1.50;;
42196;SDS011;27866;48.146;17.098;2024-02-23T02:11:33;2.20;;;1.40;;
42196;SDS011;27866;48.146;17.098;2024-02-23T02:15:44;2.33;;;1.63;;
42196;SDS011;27866;48.146;17.098;2024-02-23T02:19:56;3.10;;;1.30;;
42196;SDS011;27866;48.146;17.098;2024-02-23T02:24:14;2.15;;;1.30;;
42196;SDS011;27866;48.146;17.098;2024-02-23T02:28:26;2.65;;;1.60;;
42196;SDS011;27866;48.146;17.098;2024-02-23T02:32:37;3.67;;;1.70;;
42196;SDS011;27866;48.146;17.098;2024-02-23T02:36:49;3.08;;;1.70;;
42196;SDS011;27866;48.146;17.098;2024-02-23T02:41:01;2.47;;;1.40;;
42196;SDS011;27866;48.146;17.098;2024-02-23T02:45:13;2.97;;;1.60;;
42196;SDS011;27866;48.146;17.098;2024-02-23T02:49:24;2.63;;;1.50;;
42196;SDS011;27866;48.146;17.098;2024-02-23T02:53:36;3.60;;;1.60;;
42196;SDS011;27866;48.146;17.098;2024-02-23T02:57:47;2.28;;;1.48;;
42196;SDS011;27866;48.146;17.098;2024-02-23T03:02:01;2.50;;;1.60;;
42196;SDS011;27866;48.146;17.098;2024-02-23T03:06:13;5.25;;;1.60;;
42196;SDS011;27866;48.146;17.098;2024-02-23T03:10:24;1.88;;;1.65;;
42196;SDS011;27866;48.146;17.098;2024-02-23T03:14:37;4.35;;;2.00;;
42196;SDS011;27866;48.146;17.098;2024-02-23T03:18:50;5.60;;;1.90;;
42196;SDS011;27866;48.146;17.098;2024-02-23T03:23:04;2.33;;;1.70;;
42196;SDS011;27866;48.146;17.098;2024-02-23T03:27:15;3.65;;;1.77;;
42196;SDS011;27866;48.146;17.098;2024-02-23T03:31:27;2.63;;;1.70;;
42196;SDS011;27866;48.146;17.098;2024-02-23T03:35:39;3.78;;;1.83;;
42196;SDS011;27866;48.146;17.098;2024-02-23T03:39:50;3.22;;;1.88;;
42196;SDS011;27866;48.146;17.098;2024-02-23T03:44:02;2.90;;;2.00;;
42196;SDS011;27866;48.146;17.098;2024-02-23T03:48:13;2.67;;;1.77;;
42196;SDS011;27866;48.146;17.098;2024-02-23T03:52:25;4.15;;;2.00;;
42196;SDS011;27866;48.146;17.098;2024-02-23T03:56:40;2.72;;;2.08;;
42196;SDS011;27866;48.146;17.098;2024-02-23T04:00:51;2.58;;;1.52;;
42196;SDS011;27866;48.146;17.098;2024-02-23T04:05:03;2.42;;;1.73;;
42196;SDS011;27866;48.146;17.098;2024-02-23T04:09:16;2.63;;;1.77;;
42196;SDS011;27866;48.146;17.098;2024-02-23T04:13:27;4.25;;;2.00;;
42196;SDS011;27866;48.146;17.098;2024-02-23T04:17:38;3.60;;;2.08;;
42196;SDS011;27866;48.146;17.098;2024-02-23T04:21:50;2.20;;;1.77;;
42196;SDS011;27866;48.146;17.098;2024-02-23T04:26:01;3.65;;;2.08;;
42196;SDS011;27866;48.146;17.098;2024-02-23T04:30:13;2.97;;;2.17;;
42196;SDS011;27866;48.146;17.098;2024-02-23T04:34:25;3.05;;;2.08;;
42196;SDS011;27866;48.146;17.098;2024-02-23T04:38:36;4.35;;;2.40;;
42196;SDS011;27866;48.146;17.098;2024-02-23T04:42:48;3.88;;;2.47;;
42196;SDS011;27866;48.146;17.098;2024-02-23T04:47:00;5.05;;;2.63;;
42196;SDS011;27866;48.146;17.098;2024-02-23T04:51:12;3.60;;;2.45;;
42196;SDS011;27866;48.146;17.098;2024-02-23T04:55:23;8.13;;;2.38;;
42196;SDS011;27866;48.146;17.098;2024-02-23T04:59:34;8.80;;;2.10;;
42196;SDS011;27866;48.146;17.098;2024-02-23T05:03:46;4.85;;;2.00;;
42196;SDS011;27866;48.146;17.098;2024-02-23T05:07:58;3.30;;;1.50;;
42196;SDS011;27866;48.146;17.098;2024-02-23T05:12:09;2.85;;;1.83;;
42196;SDS011;27866;48.146;17.098;2024-02-23T05:16:21;4.07;;;2.03;;
42196;SDS011;27866;48.146;17.098;2024-02-23T05:20:32;3.85;;;2.17;;
42196;SDS011;27866;48.146;17.098;2024-02-23T05:24:44;3.50;;;2.55;;
42196;SDS011;27866;48.146;17.098;2024-02-23T05:28:55;5.30;;;2.80;;
42196;SDS011;27866;48.146;17.098;2024-02-23T05:33:07;6.68;;;3.33;;
42196;SDS011;27866;48.146;17.098;2024-02-23T05:37:19;8.20;;;3.88;;
42196;SDS011;27866;48.146;17.098;2024-02-23T05:41:30;7.05;;;4.47;;
42196;SDS011;27866;48.146;17.098;2024-02-23T05:45:42;6.65;;;4.68;;
42196;SDS011;27866;48.146;17.098;2024-02-23T05:49:54;6.32;;;4.32;;
42196;SDS011;27866;48.146;17.098;2024-02-23T05:54:06;7.97;;;4.32;;
42196;SDS011;27866;48.146;17.098;2024-02-23T05:58:18;6.78;;;4.30;;
42196;SDS011;27866;48.146;17.098;2024-02-23T06:02:31;8.00;;;4.55;;
42196;SDS011;27866;48.146;17.098;2024-02-23T06:06:42;8.15;;;4.32;;
42196;SDS011;27866;48.146;17.098;2024-02-23T06:10:54;6.55;;;4.30;;
42196;SDS011;27866;48.146;17.098;2024-02-23T06:15:06;5.68;;;3.70;;
42196;SDS011;27866;48.146;17.098;2024-02-23T06:19:18;6.53;;;4.00;;
42196;SDS011;27866;48.146;17.098;2024-02-23T06:23:29;5.63;;;3.60;;
42196;SDS011;27866;48.146;17.098;2024-02-23T06:27:41;9.75;;;4.15;;
42196;SDS011;27866;48.146;17.098;2024-02-23T06:31:52;6.10;;;3.72;;
42196;SDS011;27866;48.146;17.098;2024-02-23T06:36:04;6.43;;;3.88;;
42196;SDS011;27866;48.146;17.098;2024-02-23T06:40:16;9.48;;;4.50;;
42196;SDS011;27866;48.146;17.098;2024-02-23T06:44:28;7.20;;;3.85;;
42196;SDS011;27866;48.146;17.098;2024-02-23T06:48:40;6.10;;;4.13;;
42196;SDS011;27866;48.146;17.098;2024-02-23T06:52:51;6.30;;;4.75;;
42196;SDS011;27866;48.146;17.098;2024-02-23T06:57:03;9.27;;;4.40;;
42196;SDS011;27866;48.146;17.098;2024-02-23T07:01:14;8.13;;;4.30;;
42196;SDS011;27866;48.146;17.098;2024-02-23T07:05:26;9.38;;;4.63;;
42196;SDS011;27866;48.146;17.098;2024-02-23T07:09:37;6.40;;;3.97;;
42196;SDS011;27866;48.146;17.098;2024-02-23T07:13:49;6.72;;;4.50;;
42196;SDS011;27866;48.146;17.098;2024-02-23T07:18:01;6.82;;;4.38;;
42196;SDS011;27866;48.146;17.098;2024-02-23T07:22:13;8.25;;;3.95;;
42196;SDS011;27866;48.146;17.098;2024-02-23T07:26:27;4.95;;;3.47;;
42196;SDS011;27866;48.146;17.098;2024-02-23T07:30:39;5.50;;;3.17;;
42196;SDS011;27866;48.146;17.098;2024-02-23T07:34:51;6.53;;;3.50;;
42196;SDS011;27866;48.146;17.098;2024-02-23T07:39:03;3.53;;;2.60;;
42196;SDS011;27866;48.146;17.098;2024-02-23T07:43:14;4.05;;;2.60;;
42196;SDS011;27866;48.146;17.098;2024-02-23T07:47:26;3.45;;;2.10;;
42196;SDS011;27866;48.146;17.098;2024-02-23T07:51:38;4.45;;;2.15;;
42196;SDS011;27866;48.146;17.098;2024-02-23T07:55:50;3.30;;;1.73;;
42196;SDS011;27866;48.146;17.098;2024-02-23T08:00:01;1.88;;;1.48;;
42196;SDS011;27866;48.146;17.098;2024-02-23T08:04:22;2.70;;;1.73;;
42196;SDS011;27866;48.146;17.098;2024-02-23T08:08:33;8.85;;;3.58;;
42196;SDS011;27866;48.146;17.098;2024-02-23T08:12:46;3.45;;;1.80;;
42196;SDS011;27866;48.146;17.098;2024-02-23T08:16:58;5.78;;;1.83;;
42196;SDS011;27866;48.146;17.098;2024-02-23T08:21:10;4.97;;;1.60;;
42196;SDS011;27866;48.146;17.098;2024-02-23T08:25:21;3.90;;;1.80;;
42196;SDS011;27866;48.146;17.098;2024-02-23T08:29:33;3.28;;;1.65;;
42196;SDS011;27866;48.146;17.098;2024-02-23T08:33:47;5.07;;;1.92;;
42196;SDS011;27866;48.146;17.098;2024-02-23T08:37:59;3.35;;;1.50;;
42196;SDS011;27866;48.146;17.098;2024-02-23T08:42:10;3.13;;;1.48;;
42196;SDS011;27866;48.146;17.098;2024-02-23T08:46:22;5.10;;;1.60;;
42196;SDS011;27866;48.146;17.098;2024-02-23T08:50:34;3.70;;;1.90;;
42196;SDS011;27866;48.146;17.098;2024-02-23T08:54:45;2.10;;;1.58;;
42196;SDS011;27866;48.146;17.098;2024-02-23T08:58:57;1.90;;;1.33;;
42196;SDS011;27866;48.146;17.098;2024-02-23T09:03:09;3.25;;;1.50;;
42196;SDS011;27866;48.146;17.098;2024-02-23T09:07:20;2.85;;;1.40;;
42196;SDS011;27866;48.146;17.098;2024-02-23T09:11:32;3.85;;;1.40;;
42196;SDS011;27866;48.146;17.098;2024-02-23T09:15:44;3.70;;;1.67;;
42196;SDS011;27866;48.146;17.098;2024-02-23T09:19:55;2.58;;;1.50;;
42196;SDS011;27866;48.146;17.098;2024-02-23T09:24:07;4.65;;;1.38;;
42196;SDS011;27866;48.146;17.098;2024-02-23T09:28:18;4.00;;;1.58;;
42196;SDS011;27866;48.146;17.098;2024-02-23T09:32:30;3.50;;;1.40;;
42196;SDS011;27866;48.146;17.098;2024-02-23T09:36:42;4.45;;;1.30;;
42196;SDS011;27866;48.146;17.098;2024-02-23T09:40:54;1.73;;;1.33;;
42196;SDS011;27866;48.146;17.098;2024-02-23T09:45:06;5.15;;;1.40;;
42196;SDS011;27866;48.146;17.098;2024-02-23T09:49:19;2.30;;;1.25;;
42196;SDS011;27866;48.146;17.098;2024-02-23T09:53:31;7.70;;;1.48;;
42196;SDS011;27866;48.146;17.098;2024-02-23T09:57:43;4.65;;;1.33;;
42196;SDS011;27866;48.146;17.098;2024-02-23T10:01:57;2.65;;;1.35;;
42196;SDS011;27866;48.146;17.098;2024-02-23T10:06:10;3.75;;;1.20;;
42196;SDS011;27866;48.146;17.098;2024-02-23T10:10:40;1.95;;;1.08;;
42196;SDS011;27866;48.146;17.098;2024-02-23T10:14:51;5.00;;;1.20;;
42196;SDS011;27866;48.146;17.098;2024-02-23T10:19:04;2.97;;;1.30;;
42196;SDS011;27866;48.146;17.098;2024-02-23T10:23:15;2.42;;;1.10;;
42196;SDS011;27866;48.146;17.098;2024-02-23T10:27:28;3.60;;;1.27;;
42196;SDS011;27866;48.146;17.098;2024-02-23T10:31:40;5.72;;;1.23;;
42196;SDS011;27866;48.146;17.098;2024-02-23T10:35:56;2.10;;;1.40;;
42196;SDS011;27866;48.146;17.098;2024-02-23T10:40:11;3.78;;;1.40;;
42196;SDS011;27866;48.146;17.098;2024-02-23T10:44:24;3.13;;;1.40;;
42196;SDS011;27866;48.146;17.098;2024-02-23T10:48:40;6.43;;;1.30;;
42196;SDS011;27866;48.146;17.098;2024-02-23T10:57:05;2.13;;;1.27;;
42196;SDS011;27866;48.146;17.098;2024-02-23T11:01:18;2.63;;;0.93;;
42196;SDS011;27866;48.146;17.098;2024-02-23T11:05:31;3.55;;;1.20;;
42196;SDS011;27866;48.146;17.098;2024-02-23T11:09:43;3.30;;;1.40;;
42196;SDS011;27866;48.146;17.098;2024-02-23T11:13:59;4.55;;;1.40;;
42196;SDS011;27866;48.146;17.098;2024-02-23T11:18:26;2.65;;;1.20;;
42196;SDS011;27866;48.146;17.098;2024-02-23T11:22:38;2.47;;;1.35;;
42196;SDS011;27866;48.146;17.098;2024-02-23T11:26:55;5.68;;;1.50;;
42196;SDS011;27866;48.146;17.098;2024-02-23T11:31:12;4.68;;;1.33;;
42196;SDS011;27866;48.146;17.098;2024-02-23T11:35:25;1.38;;;1.20;;
42196;SDS011;27866;48.146;17.098;2024-02-23T11:39:37;1.33;;;1.10;;
42196;SDS011;27866;48.146;17.098;2024-02-23T11:43:56;5.60;;;1.40;;
42196;SDS011;27866;48.146;17.098;2024-02-23T11:48:10;4.05;;;1.45;;
42196;SDS011;27866;48.146;17.098;2024-02-23T11:52:22;1.20;;;1.00;;
42196;SDS011;27866;48.146;17.098;2024-02-23T11:56:33;1.67;;;1.15;;
42196;SDS011;27866;48.146;17.098;2024-02-23T12:00:45;2.55;;;1.17;;
42196;SDS011;27866;48.146;17.098;2024-02-23T12:04:56;2.35;;;1.38;;
42196;SDS011;27866;48.146;17.098;2024-02-23T12:09:08;1.23;;;1.10;;
42196;SDS011;27866;48.146;17.098;2024-02-23T12:13:22;1.98;;;1.00;;
42196;SDS011;27866;48.146;17.098;2024-02-23T12:17:35;2.00;;;1.40;;
42196;SDS011;27866;48.146;17.098;2024-02-23T12:21:50;2.97;;;1.33;;
42196;SDS011;27866;48.146;17.098;2024-02-23T12:26:01;2.95;;;1.80;;
42196;SDS011;27866;48.146;17.098;2024-02-23T12:30:13;3.33;;;1.77;;
42196;SDS011;27866;48.146;17.098;2024-02-23T12:34:28;4.93;;;1.90;;
42196;SDS011;27866;48.146;17.098;2024-02-23T12:38:40;3.95;;;1.88;;
42196;SDS011;27866;48.146;17.098;2024-02-23T12:42:51;4.78;;;2.17;;
42196;SDS011;27866;48.146;17.098;2024-02-23T12:47:03;4.88;;;2.22;;
42196;SDS011;27866;48.146;17.098;2024-02-23T12:51:15;4.35;;;2.17;;
42196;SDS011;27866;48.146;17.098;2024-02-23T12:55:26;2.63;;;1.80;;
42196;SDS011;27866;48.146;17.098;2024-02-23T12:59:38;2.65;;;1.77;;
42196;SDS011;27866;48.146;17.098;2024-02-23T13:03:50;2.90;;;1.70;;
42196;SDS011;27866;48.146;17.098;2024-02-23T13:08:01;5.72;;;1.67;;
42196;SDS011;27866;48.146;17.098;2024-02-23T13:12:13;2.40;;;1.80;;
42196;SDS011;27866;48.146;17.098;2024-02-23T13:16:24;2.90;;;2.00;;
42196;SDS011;27866;48.146;17.098;2024-02-23T13:20:39;2.63;;;1.98;;
42196;SDS011;27866;48.146;17.098;2024-02-23T13:24:54;4.15;;;2.00;;
42196;SDS011;27866;48.146;17.098;2024-02-23T13:29:06;4.30;;;2.30;;
42196;SDS011;27866;48.146;17.098;2024-02-23T13:33:18;3.20;;;2.17;;
42196;SDS011;27866;48.146;17.098;2024-02-23T13:37:31;4.57;;;2.30;;
42196;SDS011;27866;48.146;17.098;2024-02-23T13:41:42;3.58;;;2.20;;
42196;SDS011;27866;48.146;17.098;2024-02-23T13:45:54;3.78;;;1.92;;
42196;SDS011;27866;48.146;17.098;2024-02-23T13:50:07;2.83;;;1.98;;
42196;SDS011;27866;48.146;17.098;2024-02-23T13:54:18;4.65;;;2.55;;
42196;SDS011;27866;48.146;17.098;2024-02-23T13:58:30;6.78;;;2.15;;
42196;SDS011;27866;48.146;17.098;2024-02-23T14:02:42;5.40;;;2.60;;
42196;SDS011;27866;48.146;17.098;2024-02-23T14:06:55;5.40;;;2.92;;
42196;SDS011;27866;48.146;17.098;2024-02-23T14:11:07;3.38;;;2.38;;
42196;SDS011;27866;48.146;17.098;2024-02-23T14:15:19;4.90;;;2.90;;
42196;SDS011;27866;48.146;17.098;2024-02-23T14:19:30;5.40;;;3.00;;
42196;SDS011;27866;48.146;17.098;2024-02-23T14:23:42;5.03;;;3.10;;
42196;SDS011;27866;48.146;17.098;2024-02-23T14:27:54;4.55;;;2.97;;
42196;SDS011;27866;48.146;17.098;2024-02-23T14:32:06;7.35;;;3.08;;
42196;SDS011;27866;48.146;17.098;2024-02-23T14:36:18;8.82;;;3.25;;
42196;SDS011;27866;48.146;17.098;2024-02-23T14:40:30;5.55;;;3.20;;
42196;SDS011;27866;48.146;17.098;2024-02-23T14:44:41;4.60;;;3.08;;
42196;SDS011;27866;48.146;17.098;2024-02-23T14:48:53;5.47;;;3.40;;
42196;SDS011;27866;48.146;17.098;2024-02-23T14:53:04;6.85;;;3.88;;
42196;SDS011;27866;48.146;17.098;2024-02-23T14:57:16;5.15;;;2.97;;
42196;SDS011;27866;48.146;17.098;2024-02-23T15:01:28;7.53;;;3.30;;
42196;SDS011;27866;48.146;17.098;2024-02-23T15:05:39;5.18;;;3.10;;
42196;SDS011;27866;48.146;17.098;2024-02-23T15:09:51;6.00;;;3.20;;
42196;SDS011;27866;48.146;17.098;2024-02-23T15:14:02;5.55;;;2.70;;
42196;SDS011;27866;48.146;17.098;2024-02-23T15:18:14;7.15;;;3.45;;
42196;SDS011;27866;48.146;17.098;2024-02-23T15:22:25;4.28;;;2.90;;
42196;SDS011;27866;48.146;17.098;2024-02-23T15:26:37;3.70;;;2.75;;
42196;SDS011;27866;48.146;17.098;2024-02-23T15:30:49;6.32;;;3.05;;
42196;SDS011;27866;48.146;17.098;2024-02-23T15:35:02;4.75;;;3.00;;
42196;SDS011;27866;48.146;17.098;2024-02-23T15:39:14;5.88;;;3.50;;
42196;SDS011;27866;48.146;17.098;2024-02-23T15:43:25;6.10;;;3.22;;
42196;SDS011;27866;48.146;17.098;2024-02-23T15:47:38;5.63;;;3.30;;
42196;SDS011;27866;48.146;17.098;2024-02-23T15:51:49;7.00;;;3.63;;
42196;SDS011;27866;48.146;17.098;2024-02-23T15:56:01;5.07;;;3.40;;
42196;SDS011;27866;48.146;17.098;2024-02-23T16:00:13;6.72;;;3.25;;
42196;SDS011;27866;48.146;17.098;2024-02-23T16:04:25;6.35;;;3.47;;
42196;SDS011;27866;48.146;17.098;2024-02-23T16:08:41;6.63;;;4.38;;
42196;SDS011;27866;48.146;17.098;2024-02-23T16:12:56;5.20;;;3.50;;
42196;SDS011;27866;48.146;17.098;2024-02-23T16:17:09;5.05;;;3.38;;
42196;SDS011;27866;48.146;17.098;2024-02-23T16:21:21;7.20;;;4.10;;
42196;SDS011;27866;48.146;17.098;2024-02-23T16:25:33;5.45;;;3.63;;
42196;SDS011;27866;48.146;17.098;2024-02-23T16:29:45;8.07;;;3.58;;
42196;SDS011;27866;48.146;17.098;2024-02-23T16:33:56;5.38;;;3.35;;
42196;SDS011;27866;48.146;17.098;2024-02-23T16:38:08;6.97;;;3.70;;
42196;SDS011;27866;48.146;17.098;2024-02-23T16:42:19;6.53;;;3.45;;
42196;SDS011;27866;48.146;17.098;2024-02-23T16:46:32;6.30;;;3.67;;
42196;SDS011;27866;48.146;17.098;2024-02-23T16:50:43;12.98;;;4.47;;
42196;SDS011;27866;48.146;17.098;2024-02-23T16:54:57;7.25;;;3.90;;
42196;SDS011;27866;48.146;17.098;2024-02-23T16:59:09;9.55;;;4.15;;
42196;SDS011;27866;48.146;17.098;2024-02-23T17:03:21;6.28;;;4.28;;
42196;SDS011;27866;48.146;17.098;2024-02-23T17:07:32;8.32;;;4.57;;
42196;SDS011;27866;48.146;17.098;2024-02-23T17:11:44;8.52;;;4.40;;
42196;SDS011;27866;48.146;17.098;2024-02-23T17:15:55;7.63;;;4.70;;
42196;SDS011;27866;48.146;17.098;2024-02-23T17:20:07;6.82;;;4.70;;
42196;SDS011;27866;48.146;17.098;2024-02-23T17:24:19;8.88;;;4.60;;
42196;SDS011;27866;48.146;17.098;2024-02-23T17:28:30;6.60;;;4.65;;
42196;SDS011;27866;48.146;17.098;2024-02-23T17:32:43;9.90;;;5.15;;
42196;SDS011;27866;48.146;17.098;2024-02-23T17:36:55;8.77;;;5.70;;
42196;SDS011;27866;48.146;17.098;2024-02-23T17:41:06;7.28;;;5.03;;
42196;SDS011;27866;48.146;17.098;2024-02-23T17:45:18;12.35;;;5.95;;
42196;SDS011;27866;48.146;17.098;2024-02-23T17:49:30;6.65;;;5.15;;
42196;SDS011;27866;48.146;17.098;2024-02-23T17:53:41;9.63;;;5.57;;
42196;SDS011;27866;48.146;17.098;2024-02-23T17:57:53;11.57;;;5.53;;
42196;SDS011;27866;48.146;17.098;2024-02-23T18:02:04;8.80;;;5.93;;
42196;SDS011;27866;48.146;17.098;2024-02-23T18:06:16;9.27;;;5.50;;
42196;SDS011;27866;48.146;17.098;2024-02-23T18:10:29;14.20;;;6.22;;
42196;SDS011;27866;48.146;17.098;2024-02-23T18:14:42;9.20;;;5.78;;
42196;SDS011;27866;48.146;17.098;2024-02-23T18:18:54;9.27;;;6.00;;
42196;SDS011;27866;48.146;17.098;2024-02-23T18:23:08;8.30;;;5.90;;
42196;SDS011;27866;48.146;17.098;2024-02-23T18:27:20;11.52;;;7.07;;
42196;SDS011;27866;48.146;17.098;2024-02-23T18:31:31;10.38;;;6.68;;
42196;SDS011;27866;48.146;17.098;2024-02-23T18:35:43;14.90;;;8.93;;
42196;SDS011;27866;48.146;17.098;2024-02-23T18:39:54;14.68;;;7.93;;
42196;SDS011;27866;48.146;17.098;2024-02-23T18:44:06;14.90;;;8.50;;
42196;SDS011;27866;48.146;17.098;2024-02-23T18:48:21;16.40;;;9.18;;
42196;SDS011;27866;48.146;17.098;2024-02-23T18:52:32;12.27;;;8.13;;
42196;SDS011;27866;48.146;17.098;2024-02-23T18:56:44;14.65;;;9.13;;
42196;SDS011;27866;48.146;17.098;2024-02-23T19:00:55;15.77;;;9.43;;
42196;SDS011;27866;48.146;17.098;2024-02-23T19:05:08;16.38;;;9.55;;
42196;SDS011;27866;48.146;17.098;2024-02-23T19:09:20;15.40;;;9.82;;
42196;SDS011;27866;48.146;17.098;2024-02-23T19:13:32;17.60;;;10.32;;
42196;SDS011;27866;48.146;17.098;2024-02-23T19:17:43;17.25;;;9.70;;
42196;SDS011;27866;48.146;17.098;2024-02-23T19:21:55;14.32;;;9.65;;
42196;SDS011;27866;48.146;17.098;2024-02-23T19:26:06;16.13;;;9.65;;
42196;SDS011;27866;48.146;17.098;2024-02-23T19:30:18;17.17;;;9.50;;
42196;SDS011;27866;48.146;17.098;2024-02-23T19:34:30;15.52;;;9.48;;
42196;SDS011;27866;48.146;17.098;2024-02-23T19:38:41;18.35;;;8.98;;
42196;SDS011;27866;48.146;17.098;2024-02-23T19:42:53;10.73;;;7.85;;
42196;SDS011;27866;48.146;17.098;2024-02-23T19:47:04;16.70;;;8.50;;
42196;SDS011;27866;48.146;17.098;2024-02-23T19:51:17;15.50;;;8.27;;
42196;SDS011;27866;48.146;17.098;2024-02-23T19:55:28;14.23;;;8.43;;
42196;SDS011;27866;48.146;17.098;2024-02-23T19:59:40;12.95;;;8.63;;
42196;SDS011;27866;48.146;17.098;2024-02-23T20:03:51;15.93;;;7.55;;
42196;SDS011;27866;48.146;17.098;2024-02-23T20:08:03;14.52;;;8.02;;
42196;SDS011;27866;48.146;17.098;2024-02-23T20:12:15;12.35;;;8.13;;
42196;SDS011;27866;48.146;17.098;2024-02-23T20:16:28;13.30;;;7.40;;
42196;SDS011;27866;48.146;17.098;2024-02-23T20:20:39;12.55;;;7.50;;
42196;SDS011;27866;48.146;17.098;2024-02-23T20:24:51;11.23;;;7.18;;
42196;SDS011;27866;48.146;17.098;2024-02-23T20:29:03;11.50;;;6.75;;
42196;SDS011;27866;48.146;17.098;2024-02-23T20:33:15;10.70;;;6.20;;
42196;SDS011;27866;48.146;17.098;2024-02-23T20:37:27;7.95;;;5.15;;
42196;SDS011;27866;48.146;17.098;2024-02-23T20:41:39;9.60;;;5.45;;
42196;SDS011;27866;48.146;17.098;2024-02-23T20:45:51;9.35;;;5.82;;
42196;SDS011;27866;48.146;17.098;2024-02-23T20:50:03;8.35;;;4.88;;
42196;SDS011;27866;48.146;17.098;2024-02-23T20:54:15;9.43;;;5.38;;
42196;SDS011;27866;48.146;17.098;2024-02-23T20:58:27;9.45;;;6.07;;
42196;SDS011;27866;48.146;17.098;2024-02-23T21:02:38;10.63;;;5.93;;
42196;SDS011;27866;48.146;17.098;2024-02-23T21:06:50;9.00;;;5.47;;
42196;SDS011;27866;48.146;17.098;2024-02-23T21:11:01;11.27;;;6.15;;
42196;SDS011;27866;48.146;17.098;2024-02-23T21:15:13;9.88;;;5.93;;
42196;SDS011;27866;48.146;17.098;2024-02-23T21:19:26;10.30;;;5.45;;
42196;SDS011;27866;48.146;17.098;2024-02-23T21:23:37;8.90;;;5.93;;
42196;SDS011;27866;48.146;17.098;2024-02-23T21:27:49;9.82;;;5.70;;
42196;SDS011;27866;48.146;17.098;2024-02-23T21:32:00;10.55;;;5.20;;
42196;SDS011;27866;48.146;17.098;2024-02-23T21:36:12;10.60;;;5.95;;
42196;SDS011;27866;48.146;17.098;2024-02-23T21:40:24;10.18;;;5.40;;
42196;SDS011;27866;48.146;17.098;2024-02-23T21:44:36;10.32;;;5.30;;
42196;SDS011;27866;48.146;17.098;2024-02-23T21:48:47;10.65;;;5.22;;
42196;SDS011;27866;48.146;17.098;2024-02-23T21:52:59;8.35;;;5.05;;
42196;SDS011;27866;48.146;17.098;2024-02-23T21:57:10;8.13;;;5.07;;
42196;SDS011;27866;48.146;17.098;2024-02-23T22:01:22;12.88;;;5.43;;
42196;SDS011;27866;48.146;17.098;2024-02-23T22:05:33;8.98;;;5.43;;
42196;SDS011;27866;48.146;17.098;2024-02-23T22:09:45;8.80;;;5.35;;
42196;SDS011;27866;48.146;17.098;2024-02-23T22:14:00;11.00;;;5.55;;
42196;SDS011;27866;48.146;17.098;2024-02-23T22:18:11;11.50;;;5.68;;
42196;SDS011;27866;48.146;17.098;2024-02-23T22:22:23;13.52;;;6.30;;
42196;SDS011;27866;48.146;17.098;2024-02-23T22:26:36;9.65;;;6.18;;
42196;SDS011;27866;48.146;17.098;2024-02-23T22:30:47;11.75;;;6.90;;
42196;SDS011;27866;48.146;17.098;2024-02-23T22:34:59;10.70;;;7.05;;
42196;SDS011;27866;48.146;17.098;2024-02-23T22:39:10;14.88;;;7.47;;
42196;SDS011;27866;48.146;17.098;2024-02-23T22:43:23;15.25;;;7.88;;
42196;SDS011;27866;48.146;17.098;2024-02-23T22:47:36;8.52;;;5.63;;
42196;SDS011;27866;48.146;17.098;2024-02-23T22:51:48;6.30;;;3.35;;
42196;SDS011;27866;48.146;17.098;2024-02-23T22:55:59;6.13;;;3.08;;
42196;SDS011;27866;48.146;17.098;2024-02-23T23:00:11;4.90;;;2.70;;
42196;SDS011;27866;48.146;17.098;2024-02-23T23:04:43;3.42;;;2.40;;
42196;SDS011;27866;48.146;17.098;2024-02-23T23:08:55;4.18;;;2.60;;
42196;SDS011;27866;48.146;17.098;2024-02-23T23:13:07;3.70;;;2.22;;
42196;SDS011;27866;48.146;17.098;2024-02-23T23:17:19;3.63;;;2.22;;
42196;SDS011;27866;48.146;17.098;2024-02-23T23:21:31;3.25;;;2.00;;
42196;SDS011;27866;48.146;17.098;2024-02-23T23:25:42;3.38;;;2.22;;
42196;SDS011;27866;48.146;17.098;2024-02-23T23:29:54;2.92;;;2.08;;
42196;SDS011;27866;48.146;17.098;2024-02-23T23:34:05;3.15;;;2.50;;
42196;SDS011;27866;48.146;17.098;2024-02-23T23:38:17;2.88;;;1.92;;
42196;SDS011;27866;48.146;17.098;2024-02-23T23:42:29;4.55;;;2.15;;
42196;SDS011;27866;48.146;17.098;2024-02-23T23:46:40;3.78;;;2.13;;
42196;SDS011;27866;48.146;17.098;2024-02-23T23:50:52;2.97;;;1.90;;
42196;SDS011;27866;48.146;17.098;2024-02-23T23:55:04;3.67;;;1.90;;
42196;SDS011;27866;48.146;17.098;2024-02-23T23:59:15;2.72;;;1.50;;
